Time;durP1;ratioP1;P1;durP2;ratioP2;P2;SDS_P1;SDS_P2;PMS_P1;PMS_P2;Temp;Humidity;BMP_temperature;BMP_pressure;BME280_temperature;BME280_humidity;BME280_pressure;Samples;Min_cycle;Max_cycle;Signal;HPM_P1;HPM_P2
2023/07/19 00:00:34;;;;;;;4.87;4.23;;;17.40;99.90;;;;;;486058;244;29257;-79
2023/07/19 00:02:36;;;;;;;5.50;4.73;;;17.40;99.90;;;;;;486063;244;28753;-80
2023/07/19 00:04:37;;;;;;;7.90;4.47;;;17.40;99.90;;;;;;486107;244;28823;-77
2023/07/19 00:06:38;;;;;;;5.63;3.80;;;17.50;99.90;;;;;;486119;244;28787;-83
2023/07/19 00:08:39;;;;;;;6.93;4.40;;;17.50;99.90;;;;;;486125;244;28749;-80
2023/07/19 00:10:41;;;;;;;8.13;4.30;;;17.50;99.90;;;;;;486105;244;28826;-82
2023/07/19 00:12:42;;;;;;;5.40;4.07;;;17.50;99.90;;;;;;486127;244;28742;-80
2023/07/19 00:14:43;;;;;;;7.23;4.73;;;17.50;99.90;;;;;;486097;244;29090;-79
2023/07/19 00:16:44;;;;;;;5.80;4.77;;;17.50;99.90;;;;;;486087;244;28778;-81
2023/07/19 00:18:46;;;;;;;6.27;4.30;;;17.40;99.90;;;;;;486098;244;28847;-79
2023/07/19 00:20:47;;;;;;;5.43;4.17;;;17.40;99.90;;;;;;486070;244;29173;-81
2023/07/19 00:22:48;;;;;;;5.87;4.07;;;17.50;99.90;;;;;;486059;244;29259;-80
2023/07/19 00:24:49;;;;;;;4.80;4.10;;;17.50;99.90;;;;;;486085;244;29486;-80
2023/07/19 00:26:51;;;;;;;4.57;4.10;;;17.50;99.90;;;;;;486061;244;28855;-80
2023/07/19 00:28:52;;;;;;;5.97;4.57;;;17.50;99.90;;;;;;486062;244;28737;-79
2023/07/19 00:30:53;;;;;;;6.10;4.37;;;17.50;99.90;;;;;;486050;244;28839;-79
2023/07/19 00:32:54;;;;;;;8.53;5.40;;;17.50;99.90;;;;;;486047;244;28749;-80
2023/07/19 00:34:56;;;;;;;4.73;3.83;;;17.50;99.90;;;;;;486020;244;29098;-78
2023/07/19 00:36:57;;;;;;;4.77;4.20;;;17.60;99.90;;;;;;486098;244;28705;-81
2023/07/19 00:38:58;;;;;;;6.47;4.30;;;17.60;99.90;;;;;;486084;244;28749;-79
2023/07/19 00:40:59;;;;;;;6.43;4.03;;;17.70;99.90;;;;;;486062;243;28803;-82
2023/07/19 00:43:01;;;;;;;5.70;4.10;;;17.70;99.90;;;;;;486024;244;28776;-81
2023/07/19 00:45:02;;;;;;;4.80;3.93;;;17.70;99.90;;;;;;486073;244;29327;-78
2023/07/19 00:47:03;;;;;;;6.60;4.30;;;17.70;99.90;;;;;;486044;244;29254;-81
2023/07/19 00:49:04;;;;;;;4.50;4.00;;;17.60;99.90;;;;;;486043;244;29315;-79
2023/07/19 00:51:06;;;;;;;5.10;3.70;;;17.50;99.90;;;;;;485936;244;29169;-80
2023/07/19 00:53:07;;;;;;;4.83;4.33;;;17.50;99.90;;;;;;485973;243;28828;-81
2023/07/19 00:55:08;;;;;;;5.47;4.60;;;17.50;99.90;;;;;;486092;244;28789;-80
2023/07/19 00:57:09;;;;;;;4.30;3.90;;;17.50;99.90;;;;;;486072;244;28713;-81
2023/07/19 00:59:11;;;;;;;4.50;3.70;;;17.60;99.90;;;;;;486051;244;28772;-80
2023/07/19 01:01:12;;;;;;;6.90;4.37;;;17.50;99.90;;;;;;486030;244;28716;-82
2023/07/19 01:03:13;;;;;;;4.60;3.57;;;17.50;99.90;;;;;;486065;244;28772;-80
2023/07/19 01:05:14;;;;;;;4.30;3.90;;;17.50;99.90;;;;;;486139;244;28761;-79
2023/07/19 01:07:16;;;;;;;9.50;4.30;;;17.40;99.90;;;;;;486070;244;28713;-82
2023/07/19 01:09:17;;;;;;;5.93;4.10;;;17.40;99.90;;;;;;486071;244;28773;-79
2023/07/19 01:11:18;;;;;;;8.53;4.97;;;17.40;99.90;;;;;;486069;244;28713;-81
2023/07/19 01:13:19;;;;;;;6.53;4.77;;;17.40;99.90;;;;;;486091;244;28712;-80
2023/07/19 01:15:21;;;;;;;5.60;4.10;;;17.40;99.90;;;;;;486065;244;28754;-78
2023/07/19 01:17:22;;;;;;;5.70;4.10;;;17.30;99.90;;;;;;486029;244;28698;-80
2023/07/19 01:19:23;;;;;;;4.70;4.20;;;17.20;99.90;;;;;;486054;244;29291;-79
2023/07/19 01:21:24;;;;;;;4.63;4.10;;;17.30;99.90;;;;;;486069;244;29993;-79
2023/07/19 01:23:26;;;;;;;6.23;4.20;;;17.20;99.90;;;;;;486060;244;29251;-79
2023/07/19 01:25:27;;;;;;;4.60;4.20;;;17.20;99.90;;;;;;486062;244;29332;-79
2023/07/19 01:27:28;;;;;;;7.60;4.97;;;17.10;99.90;;;;;;486026;244;28784;-80
2023/07/19 01:29:29;;;;;;;4.63;4.17;;;17.10;99.90;;;;;;486024;244;28821;-80
2023/07/19 01:31:31;;;;;;;5.47;4.67;;;17.20;99.90;;;;;;486026;244;28819;-80
2023/07/19 01:33:32;;;;;;;5.63;4.83;;;17.10;99.90;;;;;;486074;243;28713;-81
2023/07/19 01:35:33;;;;;;;5.03;4.20;;;17.10;99.90;;;;;;486079;244;28768;-81
2023/07/19 01:37:34;;;;;;;5.90;3.80;;;17.10;99.90;;;;;;486063;244;28697;-80
2023/07/19 01:39:36;;;;;;;6.00;4.53;;;17.10;99.90;;;;;;486082;244;28785;-80
2023/07/19 01:41:37;;;;;;;5.13;4.30;;;17.10;99.90;;;;;;486131;244;28831;-82
2023/07/19 01:43:38;;;;;;;4.03;3.70;;;17.00;99.90;;;;;;486100;244;28785;-80
2023/07/19 01:45:40;;;;;;;4.83;4.10;;;17.00;99.90;;;;;;486107;244;29304;-80
2023/07/19 01:47:41;;;;;;;7.33;4.00;;;17.00;99.90;;;;;;486101;244;29208;-81
2023/07/19 01:49:42;;;;;;;5.37;4.13;;;16.90;99.90;;;;;;486080;244;29240;-80
2023/07/19 01:51:43;;;;;;;4.90;4.10;;;16.90;99.90;;;;;;486056;244;29014;-83
2023/07/19 01:53:45;;;;;;;6.00;4.57;;;16.90;99.90;;;;;;486069;243;28701;-81
2023/07/19 01:55:46;;;;;;;7.10;4.47;;;16.90;99.90;;;;;;486024;244;28768;-80
2023/07/19 01:57:48;;;;;;;7.47;4.30;;;16.80;99.90;;;;;;486046;244;28798;-80
2023/07/19 01:59:48;;;;;;;4.80;4.30;;;16.80;99.90;;;;;;486035;244;28781;-78
2023/07/19 02:01:50;;;;;;;5.30;4.63;;;16.80;99.90;;;;;;486094;244;28725;-78
2023/07/19 02:03:51;;;;;;;5.67;4.20;;;16.80;99.90;;;;;;486096;244;28700;-80
2023/07/19 02:05:52;;;;;;;7.00;4.57;;;16.80;99.90;;;;;;486103;244;28782;-79
2023/07/19 02:07:53;;;;;;;7.97;4.40;;;16.70;99.90;;;;;;486082;244;28871;-78
2023/07/19 02:09:55;;;;;;;5.40;4.40;;;16.70;99.90;;;;;;486066;244;29293;-79
2023/07/19 02:11:56;;;;;;;6.07;4.20;;;16.60;99.90;;;;;;485489;244;29233;-76
2023/07/19 02:13:57;;;;;;;6.70;4.23;;;16.50;99.90;;;;;;485586;244;29171;-80
2023/07/19 02:15:58;;;;;;;6.60;4.43;;;16.50;99.90;;;;;;485961;244;28847;-80
2023/07/19 02:18:00;;;;;;;4.77;4.33;;;16.40;99.90;;;;;;486031;244;28730;-79
2023/07/19 02:20:01;;;;;;;5.33;4.40;;;16.30;99.90;;;;;;486043;244;28760;-79
2023/07/19 02:22:02;;;;;;;4.40;4.00;;;16.30;99.90;;;;;;486062;244;28776;-80
2023/07/19 02:24:03;;;;;;;6.00;4.67;;;16.30;99.90;;;;;;486039;244;28835;-80
2023/07/19 02:26:05;;;;;;;7.03;4.93;;;16.30;99.90;;;;;;486042;244;28742;-80
2023/07/19 02:28:06;;;;;;;5.53;4.47;;;16.30;99.90;;;;;;486023;244;28715;-80
2023/07/19 02:30:07;;;;;;;5.70;4.80;;;16.30;99.90;;;;;;486053;244;28784;-79
2023/07/19 02:32:08;;;;;;;4.63;4.00;;;16.30;99.90;;;;;;486114;243;28789;-78
2023/07/19 02:34:10;;;;;;;4.60;4.20;;;16.30;99.90;;;;;;486099;244;29180;-80
2023/07/19 02:36:11;;;;;;;11.70;4.30;;;16.40;99.90;;;;;;486023;244;29321;-81
2023/07/19 02:38:12;;;;;;;7.90;4.90;;;16.40;99.90;;;;;;486010;244;29293;-81
2023/07/19 02:40:13;;;;;;;6.20;4.70;;;16.30;99.90;;;;;;486042;244;28825;-80
2023/07/19 02:42:15;;;;;;;7.40;5.13;;;16.30;99.90;;;;;;486062;243;28765;-79
2023/07/19 02:44:16;;;;;;;6.00;4.03;;;16.30;99.90;;;;;;486036;244;28706;-81
2023/07/19 02:46:17;;;;;;;6.40;4.30;;;16.40;99.90;;;;;;486029;244;28793;-81
2023/07/19 02:48:19;;;;;;;5.70;4.40;;;16.30;99.90;;;;;;486039;244;28812;-80
2023/07/19 02:50:20;;;;;;;6.40;4.57;;;16.30;99.90;;;;;;486031;244;28741;-79
2023/07/19 02:52:21;;;;;;;4.23;3.83;;;16.30;99.90;;;;;;486131;244;29102;-77
2023/07/19 02:54:22;;;;;;;5.87;4.83;;;16.30;99.90;;;;;;486054;244;28762;-80
2023/07/19 02:56:23;;;;;;;4.70;4.00;;;16.40;99.90;;;;;;485987;244;28866;-79
2023/07/19 02:58:25;;;;;;;5.63;4.57;;;16.40;99.90;;;;;;486027;244;29160;-79
2023/07/19 03:00:26;;;;;;;5.90;4.50;;;16.30;99.90;;;;;;486069;244;29250;-79
2023/07/19 03:02:27;;;;;;;4.40;3.90;;;16.30;99.90;;;;;;486101;244;29441;-78
2023/07/19 03:04:28;;;;;;;13.00;4.30;;;16.30;99.90;;;;;;486093;244;29271;-81
2023/07/19 03:06:30;;;;;;;7.70;4.40;;;16.30;99.90;;;;;;486049;244;28775;-80
2023/07/19 03:08:31;;;;;;;4.97;4.13;;;16.20;99.90;;;;;;486039;244;28813;-80
2023/07/19 03:10:32;;;;;;;6.90;4.87;;;16.20;99.90;;;;;;486082;243;28748;-79
2023/07/19 03:12:33;;;;;;;5.13;4.63;;;16.20;99.90;;;;;;486063;244;29145;-80
2023/07/19 03:14:35;;;;;;;7.67;5.17;;;16.30;99.90;;;;;;486109;244;28772;-80
2023/07/19 03:16:36;;;;;;;4.70;4.30;;;16.20;99.90;;;;;;486091;244;28813;-78
2023/07/19 03:18:37;;;;;;;6.30;4.10;;;16.30;99.90;;;;;;486020;244;28823;-80
2023/07/19 03:20:38;;;;;;;5.23;4.23;;;16.20;99.90;;;;;;486022;244;28752;-80
2023/07/19 03:22:40;;;;;;;6.57;4.83;;;16.20;99.90;;;;;;486047;244;29296;-79
2023/07/19 03:24:41;;;;;;;8.23;5.57;;;16.20;99.90;;;;;;486042;244;29261;-80
2023/07/19 03:26:42;;;;;;;9.20;5.10;;;16.20;99.90;;;;;;486091;244;29226;-79
2023/07/19 03:28:45;;;;;;;7.23;5.17;;;16.20;99.90;;;;;;486067;244;29249;-80
2023/07/19 03:30:45;;;;;;;7.10;4.77;;;16.20;99.90;;;;;;486016;244;28836;-79
2023/07/19 03:32:46;;;;;;;7.67;5.13;;;16.20;99.90;;;;;;486046;244;28750;-77
2023/07/19 03:34:47;;;;;;;6.00;4.97;;;16.20;99.90;;;;;;486051;244;28806;-80
2023/07/19 03:36:48;;;;;;;6.10;4.57;;;16.20;99.90;;;;;;486077;243;28777;-78
2023/07/19 03:38:50;;;;;;;6.50;5.10;;;16.20;99.90;;;;;;485994;244;28784;-82
2023/07/19 03:40:51;;;;;;;7.77;5.20;;;16.30;99.90;;;;;;486014;244;28758;-78
2023/07/19 03:42:52;;;;;;;6.43;5.00;;;16.20;99.90;;;;;;486085;244;28778;-79
2023/07/19 03:44:53;;;;;;;6.27;4.90;;;16.10;99.90;;;;;;486115;244;28852;-81
2023/07/19 03:46:55;;;;;;;6.30;5.20;;;16.10;99.90;;;;;;486039;244;28763;-80
2023/07/19 03:48:56;;;;;;;6.23;4.50;;;16.10;99.90;;;;;;486019;244;29201;-79
2023/07/19 03:50:57;;;;;;;6.90;4.57;;;16.10;99.90;;;;;;486042;244;29336;-80
2023/07/19 03:52:58;;;;;;;7.17;5.80;;;16.10;99.90;;;;;;486145;244;29420;-77
2023/07/19 03:55:00;;;;;;;6.20;5.60;;;16.00;99.90;;;;;;486066;244;29261;-80
2023/07/19 03:57:01;;;;;;;7.60;5.23;;;16.10;99.90;;;;;;486019;244;28849;-79
2023/07/19 03:59:02;;;;;;;8.57;5.30;;;16.10;99.90;;;;;;486114;244;28850;-79
2023/07/19 04:01:03;;;;;;;5.70;4.97;;;16.10;99.90;;;;;;486079;244;28766;-79
2023/07/19 04:03:05;;;;;;;5.53;4.73;;;16.10;99.90;;;;;;486131;244;29156;-77
2023/07/19 04:05:06;;;;;;;6.77;5.23;;;16.10;99.90;;;;;;486101;244;28701;-80
2023/07/19 04:07:07;;;;;;;8.13;5.50;;;16.10;99.90;;;;;;486092;244;28757;-77
2023/07/19 04:09:08;;;;;;;6.97;5.00;;;16.10;99.90;;;;;;486041;244;28727;-82
2023/07/19 04:11:10;;;;;;;5.13;4.63;;;16.10;99.90;;;;;;486058;244;28793;-77
2023/07/19 04:13:11;;;;;;;6.13;5.17;;;16.10;99.90;;;;;;486098;244;29298;-78
2023/07/19 04:15:12;;;;;;;6.03;5.00;;;16.10;99.90;;;;;;486048;244;29174;-80
2023/07/19 04:17:13;;;;;;;5.43;4.80;;;16.10;99.90;;;;;;486055;244;29268;-80
2023/07/19 04:19:15;;;;;;;6.00;5.40;;;16.20;99.90;;;;;;486093;243;29237;-81
2023/07/19 04:21:16;;;;;;;6.13;4.97;;;16.20;99.90;;;;;;486092;244;28849;-79
2023/07/19 04:23:17;;;;;;;7.30;5.10;;;16.20;99.90;;;;;;486126;244;28754;-77
2023/07/19 04:25:18;;;;;;;6.93;5.43;;;16.20;99.90;;;;;;486099;244;28724;-81
2023/07/19 04:27:20;;;;;;;6.60;5.40;;;16.20;99.90;;;;;;485957;244;28829;-81
2023/07/19 04:29:21;;;;;;;6.40;5.23;;;16.30;99.90;;;;;;486042;244;28811;-81
2023/07/19 04:31:22;;;;;;;7.30;5.47;;;16.30;99.90;;;;;;486044;244;28949;-81
2023/07/19 04:33:23;;;;;;;6.33;4.60;;;16.30;99.90;;;;;;486094;244;28761;-78
2023/07/19 04:35:25;;;;;;;5.23;4.70;;;16.20;99.90;;;;;;486127;244;28718;-79
2023/07/19 04:37:26;;;;;;;8.10;5.10;;;16.10;99.90;;;;;;486086;244;28855;-80
2023/07/19 04:39:27;;;;;;;7.37;5.40;;;16.10;99.90;;;;;;486087;244;29938;-80
2023/07/19 04:41:28;;;;;;;5.40;4.80;;;16.10;99.90;;;;;;486104;244;29280;-79
2023/07/19 04:43:30;;;;;;;5.27;4.77;;;16.10;99.90;;;;;;486134;244;29452;-79
2023/07/19 04:45:31;;;;;;;7.53;4.80;;;16.20;99.90;;;;;;486131;244;28749;-79
2023/07/19 04:47:32;;;;;;;5.87;4.83;;;16.20;99.90;;;;;;486106;244;28790;-80
2023/07/19 04:49:33;;;;;;;6.60;4.70;;;16.30;99.90;;;;;;486047;244;28844;-81
2023/07/19 04:51:35;;;;;;;5.03;4.53;;;16.30;99.90;;;;;;486078;244;28735;-79
2023/07/19 04:53:36;;;;;;;8.50;5.53;;;16.40;99.90;;;;;;486076;244;28752;-81
2023/07/19 04:55:37;;;;;;;7.37;5.30;;;16.30;99.90;;;;;;486029;244;28703;-82
2023/07/19 04:57:38;;;;;;;5.97;5.13;;;16.30;99.90;;;;;;486047;244;28765;-81
2023/07/19 04:59:40;;;;;;;5.97;5.37;;;16.40;99.90;;;;;;486044;244;28802;-80
2023/07/19 05:01:41;;;;;;;7.53;4.70;;;16.40;99.90;;;;;;486057;244;28702;-80
2023/07/19 05:03:42;;;;;;;5.93;5.20;;;16.50;99.90;;;;;;486074;244;29229;-78
2023/07/19 05:05:43;;;;;;;5.43;4.90;;;16.50;99.90;;;;;;486072;243;29245;-80
2023/07/19 05:07:45;;;;;;;6.30;5.37;;;16.60;99.90;;;;;;486061;244;29345;-79
2023/07/19 05:09:46;;;;;;;7.53;5.10;;;16.60;99.90;;;;;;486056;244;29331;-81
2023/07/19 05:11:47;;;;;;;7.93;5.20;;;16.60;99.90;;;;;;486053;244;28799;-81
2023/07/19 05:13:48;;;;;;;6.00;5.37;;;16.70;99.90;;;;;;486045;244;28754;-80
2023/07/19 05:15:50;;;;;;;7.33;5.57;;;16.70;99.90;;;;;;486076;244;28789;-81
2023/07/19 05:17:51;;;;;;;6.53;4.97;;;16.80;99.90;;;;;;486077;244;28766;-80
2023/07/19 05:19:52;;;;;;;5.80;4.90;;;16.80;99.90;;;;;;486055;244;28726;-82
2023/07/19 05:21:53;;;;;;;6.00;5.40;;;16.90;99.90;;;;;;486113;244;28858;-80
2023/07/19 05:23:55;;;;;;;8.20;5.60;;;17.00;99.90;;;;;;486078;244;28776;-80
2023/07/19 05:25:56;;;;;;;8.80;5.57;;;17.00;99.90;;;;;;486028;244;28856;-80
2023/07/19 05:27:57;;;;;;;7.70;5.17;;;17.10;99.90;;;;;;485926;244;28836;-78
2023/07/19 05:29:58;;;;;;;5.90;4.93;;;17.20;99.90;;;;;;486018;244;29950;-82
2023/07/19 05:32:00;;;;;;;8.20;5.10;;;17.20;99.90;;;;;;486041;244;29191;-80
2023/07/19 05:34:01;;;;;;;9.23;5.80;;;17.30;99.90;;;;;;486055;244;29240;-79
2023/07/19 05:36:02;;;;;;;7.20;5.47;;;17.30;99.90;;;;;;486044;244;28723;-82
2023/07/19 05:38:03;;;;;;;8.67;5.93;;;17.40;99.90;;;;;;486050;244;28866;-80
2023/07/19 05:40:05;;;;;;;6.30;5.43;;;17.50;99.90;;;;;;486058;244;28914;-81
2023/07/19 05:42:06;;;;;;;8.80;5.70;;;17.50;99.90;;;;;;486078;244;28703;-79
2023/07/19 05:44:07;;;;;;;7.57;6.33;;;17.50;99.90;;;;;;486068;244;28841;-80
2023/07/19 05:46:08;;;;;;;7.63;5.93;;;17.50;99.90;;;;;;486054;244;28710;-80
2023/07/19 05:48:10;;;;;;;7.40;6.30;;;17.50;99.90;;;;;;486010;244;28787;-81
2023/07/19 05:50:11;;;;;;;6.40;5.67;;;17.60;99.90;;;;;;486074;244;28831;-78
2023/07/19 05:52:12;;;;;;;9.53;6.40;;;17.60;99.90;;;;;;486116;244;28814;-81
2023/07/19 05:54:15;;;;;;;8.80;6.13;;;17.60;99.90;;;;;;486066;244;29392;-81
2023/07/19 05:56:15;;;;;;;9.57;6.47;;;17.60;99.90;;;;;;486039;244;29200;-78
2023/07/19 05:58:16;;;;;;;8.70;6.00;;;17.60;99.90;;;;;;486061;244;29226;-80
2023/07/19 06:00:17;;;;;;;11.13;6.40;;;17.60;99.90;;;;;;486118;244;28826;-81
2023/07/19 06:02:19;;;;;;;8.23;5.63;;;17.60;99.90;;;;;;486076;244;28725;-80
2023/07/19 06:04:20;;;;;;;10.67;5.20;;;17.60;99.90;;;;;;486029;244;28755;-80
2023/07/19 06:06:21;;;;;;;7.90;5.40;;;17.70;99.90;;;;;;486077;244;28711;-81
2023/07/19 06:08:22;;;;;;;7.37;6.07;;;17.70;99.90;;;;;;486119;244;28769;-80
2023/07/19 06:10:24;;;;;;;7.73;5.73;;;17.70;99.90;;;;;;486137;244;28817;-79
2023/07/19 06:12:25;;;;;;;9.57;6.20;;;17.80;99.90;;;;;;486141;244;28790;-80
2023/07/19 06:14:26;;;;;;;9.50;5.80;;;17.70;99.90;;;;;;486126;244;28838;-81
2023/07/19 06:16:27;;;;;;;6.33;5.07;;;17.80;99.90;;;;;;486031;244;29194;-80
2023/07/19 06:18:29;;;;;;;14.17;6.43;;;17.90;99.90;;;;;;486084;244;29233;-80
2023/07/19 06:20:30;;;;;;;6.20;5.00;;;17.90;99.90;;;;;;486103;244;29342;-81
2023/07/19 06:22:31;;;;;;;5.43;4.63;;;18.00;99.90;;;;;;486061;244;28726;-81
2023/07/19 06:24:32;;;;;;;7.50;6.07;;;18.00;99.90;;;;;;486015;244;28737;-79
2023/07/19 06:26:34;;;;;;;6.13;5.27;;;18.10;99.90;;;;;;486073;244;28877;-80
2023/07/19 06:28:35;;;;;;;8.37;6.30;;;18.20;99.90;;;;;;486097;243;28800;-80
2023/07/19 06:30:36;;;;;;;11.93;5.67;;;18.20;99.90;;;;;;486092;244;28829;-78
2023/07/19 06:32:37;;;;;;;8.13;5.67;;;18.30;99.90;;;;;;486085;244;28719;-79
2023/07/19 06:34:39;;;;;;;7.10;5.93;;;18.30;99.90;;;;;;486044;244;28753;-80
2023/07/19 06:36:40;;;;;;;7.67;5.87;;;18.40;99.90;;;;;;486096;244;28830;-80
2023/07/19 06:38:41;;;;;;;7.83;5.90;;;18.40;99.90;;;;;;486041;244;28714;-82
2023/07/19 06:40:42;;;;;;;8.27;5.27;;;18.50;99.90;;;;;;486060;244;29256;-81
2023/07/19 06:42:44;;;;;;;7.23;5.77;;;18.50;99.90;;;;;;486064;244;29244;-80
2023/07/19 06:44:45;;;;;;;6.60;5.83;;;18.50;99.90;;;;;;486039;244;29338;-79
2023/07/19 06:46:46;;;;;;;13.00;5.77;;;18.50;99.90;;;;;;486091;244;29261;-82
2023/07/19 06:48:47;;;;;;;8.80;5.40;;;18.60;99.90;;;;;;486103;244;28702;-80
2023/07/19 06:50:49;;;;;;;7.97;5.80;;;18.70;99.90;;;;;;486083;244;28751;-81
2023/07/19 06:52:50;;;;;;;10.40;5.30;;;18.70;99.90;;;;;;485899;243;28720;-81
2023/07/19 06:54:51;;;;;;;9.87;5.93;;;18.80;99.90;;;;;;485881;244;28816;-81
2023/07/19 06:56:52;;;;;;;11.83;6.43;;;18.90;99.90;;;;;;486052;243;29103;-80
2023/07/19 06:58:54;;;;;;;7.50;5.53;;;18.90;99.90;;;;;;486058;244;28872;-81
2023/07/19 07:00:55;;;;;;;6.90;5.20;;;18.90;99.90;;;;;;486082;244;28767;-80
2023/07/19 07:02:56;;;;;;;8.33;5.60;;;18.90;99.90;;;;;;486024;244;28724;-82
2023/07/19 07:04:57;;;;;;;8.20;5.70;;;18.90;99.90;;;;;;486069;244;28751;-80
2023/07/19 07:06:59;;;;;;;5.70;4.90;;;19.00;99.90;;;;;;486094;244;28747;-79
2023/07/19 07:09:00;;;;;;;6.10;5.10;;;19.10;99.90;;;;;;486051;244;28807;-79
2023/07/19 07:11:01;;;;;;;8.27;5.47;;;19.10;99.90;;;;;;486084;244;29315;-81
2023/07/19 07:13:02;;;;;;;8.20;5.47;;;19.20;99.90;;;;;;486051;244;29181;-82
2023/07/19 07:15:04;;;;;;;7.70;5.57;;;19.30;99.90;;;;;;486079;244;29257;-81
2023/07/19 07:17:05;;;;;;;5.70;4.30;;;19.50;99.90;;;;;;486084;244;28854;-79
2023/07/19 07:19:06;;;;;;;5.60;4.80;;;19.50;99.90;;;;;;486072;244;28784;-83
2023/07/19 07:21:07;;;;;;;5.30;4.70;;;19.60;99.90;;;;;;486062;244;28823;-80
2023/07/19 07:23:09;;;;;;;5.67;5.17;;;19.70;99.90;;;;;;486057;244;28832;-81
2023/07/19 07:25:10;;;;;;;6.27;4.57;;;19.80;99.90;;;;;;486045;244;28746;-80
2023/07/19 07:27:11;;;;;;;6.73;4.80;;;19.90;99.90;;;;;;486103;244;28789;-81
2023/07/19 07:29:13;;;;;;;10.27;4.60;;;20.00;99.90;;;;;;486111;244;28805;-81
2023/07/19 07:31:14;;;;;;;6.77;4.17;;;20.10;99.90;;;;;;486097;244;28760;-82
2023/07/19 07:33:15;;;;;;;6.00;4.27;;;20.40;99.90;;;;;;485682;243;28794;-81
2023/07/19 07:35:16;;;;;;;8.03;4.27;;;20.60;99.90;;;;;;486126;243;28706;-82
2023/07/19 07:37:19;;;;;;;4.73;4.13;;;20.70;99.90;;;;;;486030;244;28694;-83
2023/07/19 07:39:20;;;;;;;4.93;4.30;;;20.80;99.90;;;;;;485981;244;29361;-81
2023/07/19 07:41:21;;;;;;;5.60;3.67;;;20.90;99.90;;;;;;486076;244;29943;-82
2023/07/19 07:43:22;;;;;;;11.40;4.43;;;21.10;99.90;;;;;;486098;244;29164;-83
2023/07/19 07:45:24;;;;;;;5.70;3.67;;;21.10;99.90;;;;;;486101;243;29240;-81
2023/07/19 07:47:25;;;;;;;4.17;3.57;;;21.20;99.90;;;;;;486095;244;29172;-82
2023/07/19 07:49:26;;;;;;;4.13;3.73;;;21.30;99.90;;;;;;486116;244;29303;-81
2023/07/19 07:51:29;;;;;;;4.93;3.73;;;21.30;99.90;;;;;;486129;244;29418;-83
2023/07/19 07:53:29;;;;;;;4.47;3.60;;;21.40;99.90;;;;;;486115;244;28700;-81
2023/07/19 07:55:30;;;;;;;6.60;3.87;;;21.40;99.90;;;;;;486130;244;28749;-82
2023/07/19 07:57:33;;;;;;;12.80;3.90;;;21.40;99.90;;;;;;486090;244;28701;-82
2023/07/19 07:59:33;;;;;;;7.63;3.37;;;21.50;99.90;;;;;;486047;244;28841;-81
2023/07/19 08:01:34;;;;;;;3.80;3.00;;;21.60;99.90;;;;;;486141;244;28847;-84
2023/07/19 08:03:35;;;;;;;3.67;2.90;;;21.60;99.90;;;;;;486121;244;28706;-81
2023/07/19 08:05:37;;;;;;;4.73;3.13;;;21.60;99.90;;;;;;486111;244;28732;-81
2023/07/19 08:07:38;;;;;;;3.63;3.23;;;21.60;99.90;;;;;;486072;244;28780;-81
2023/07/19 08:09:39;;;;;;;6.50;3.53;;;21.70;99.90;;;;;;486096;243;29286;-80
2023/07/19 08:11:40;;;;;;;5.77;3.27;;;21.80;99.90;;;;;;486165;244;29264;-81
2023/07/19 08:13:41;;;;;;;3.27;3.03;;;21.90;99.90;;;;;;486118;244;29152;-81
2023/07/19 08:15:43;;;;;;;6.40;3.70;;;22.00;99.90;;;;;;486151;244;29365;-78
2023/07/19 08:17:44;;;;;;;7.13;3.20;;;22.00;99.90;;;;;;486127;243;28745;-81
2023/07/19 08:19:45;;;;;;;3.33;3.03;;;22.00;99.90;;;;;;486098;244;28773;-81
2023/07/19 08:21:46;;;;;;;4.00;3.23;;;21.90;99.90;;;;;;486134;244;28765;-80
2023/07/19 08:23:53;;;;;;;5.50;2.73;;;22.00;99.90;;;;;;486139;244;28709;-82
2023/07/19 08:25:49;;;;;;;3.70;3.00;;;22.10;99.90;;;;;;485843;244;28788;-80
2023/07/19 08:27:50;;;;;;;3.20;2.90;;;22.20;99.90;;;;;;486122;244;28717;-82
2023/07/19 08:29:52;;;;;;;3.37;2.73;;;22.20;99.90;;;;;;486151;244;28744;-81
2023/07/19 08:31:53;;;;;;;3.80;2.80;;;22.40;99.90;;;;;;486151;244;28732;-78
2023/07/19 08:33:54;;;;;;;3.83;2.80;;;22.30;99.90;;;;;;486167;244;28840;-82
2023/07/19 08:35:55;;;;;;;4.10;2.80;;;22.40;99.90;;;;;;486093;244;29211;-81
2023/07/19 08:37:56;;;;;;;3.60;2.97;;;22.60;99.90;;;;;;486027;244;29265;-81
2023/07/19 08:39:58;;;;;;;4.80;3.03;;;22.60;99.90;;;;;;486097;244;29265;-82
2023/07/19 08:41:59;;;;;;;5.10;2.80;;;22.70;99.90;;;;;;486130;244;28825;-80
2023/07/19 08:44:00;;;;;;;3.23;2.30;;;22.70;99.90;;;;;;486106;244;28700;-81
2023/07/19 08:46:02;;;;;;;4.00;2.80;;;22.60;99.90;;;;;;486142;244;28768;-81
2023/07/19 08:48:03;;;;;;;4.83;2.57;;;22.70;99.90;;;;;;486116;244;28787;-81
2023/07/19 08:50:07;;;;;;;2.80;2.30;;;22.80;99.90;;;;;;486145;244;28753;-82
2023/07/19 08:52:08;;;;;;;4.27;2.63;;;22.90;99.90;;;;;;486157;244;29223;-81
2023/07/19 08:54:09;;;;;;;5.20;2.43;;;23.00;99.90;;;;;;486135;244;28730;-80
2023/07/19 08:56:11;;;;;;;5.70;2.30;;;23.10;99.90;;;;;;486059;244;28776;-81
2023/07/19 08:58:12;;;;;;;5.27;2.83;;;23.00;99.90;;;;;;486132;244;28828;-82
2023/07/19 09:00:13;;;;;;;3.90;2.37;;;23.20;99.90;;;;;;486096;244;28831;-82
2023/07/19 09:02:14;;;;;;;3.83;2.50;;;23.20;99.90;;;;;;486123;244;28803;-81
2023/07/19 09:04:16;;;;;;;7.80;2.57;;;23.20;99.90;;;;;;486106;244;28808;-80
2023/07/19 09:06:17;;;;;;;6.70;2.20;;;23.20;99.90;;;;;;486127;244;28704;-81
2023/07/19 09:08:18;;;;;;;10.10;2.43;;;23.30;99.90;;;;;;486062;244;28838;-81
2023/07/19 09:10:19;;;;;;;7.30;2.43;;;23.40;99.90;;;;;;486139;244;29288;-80
2023/07/19 09:12:21;;;;;;;4.37;2.20;;;23.70;99.90;;;;;;486148;244;29264;-80
2023/07/19 09:14:22;;;;;;;3.10;2.20;;;23.70;99.90;;;;;;486172;244;29319;-79
2023/07/19 09:16:23;;;;;;;7.03;2.80;;;23.90;99.90;;;;;;486145;244;29238;-81
2023/07/19 09:18:24;;;;;;;3.40;2.10;;;24.00;99.90;;;;;;486119;244;28760;-80
2023/07/19 09:20:26;;;;;;;2.97;2.07;;;24.10;99.90;;;;;;486117;244;28839;-78
2023/07/19 09:22:27;;;;;;;3.57;1.80;;;24.10;99.90;;;;;;486144;244;28706;-80
2023/07/19 09:24:28;;;;;;;2.43;2.23;;;24.10;99.90;;;;;;486151;244;28736;-79
2023/07/19 09:26:29;;;;;;;4.47;2.10;;;24.20;99.90;;;;;;486152;244;28768;-80
2023/07/19 09:28:31;;;;;;;19.27;2.23;;;24.20;99.90;;;;;;486125;244;28736;-81
2023/07/19 09:30:32;;;;;;;3.50;2.40;;;24.30;99.90;;;;;;486147;244;28833;-78
2023/07/19 09:32:34;;;;;;;3.77;2.63;;;24.40;99.90;;;;;;486104;244;28793;-80
2023/07/19 09:34:35;;;;;;;4.10;2.47;;;24.60;99.90;;;;;;486033;244;28780;-79
2023/07/19 09:36:36;;;;;;;6.43;2.13;;;24.80;99.90;;;;;;486038;244;30047;-79
2023/07/19 09:38:37;;;;;;;9.60;2.50;;;24.80;99.90;;;;;;486123;244;29171;-80
2023/07/19 09:40:38;;;;;;;3.83;2.47;;;24.80;99.90;;;;;;486110;244;29263;-79
2023/07/19 09:42:41;;;;;;;5.63;1.83;;;24.80;99.30;;;;;;486111;244;28733;-79
2023/07/19 09:44:41;;;;;;;3.27;2.13;;;24.90;99.90;;;;;;486039;244;28746;-79
2023/07/19 09:46:43;;;;;;;3.10;1.90;;;25.10;99.90;;;;;;486143;244;28728;-80
2023/07/19 09:48:43;;;;;;;7.87;2.47;;;25.10;99.90;;;;;;486061;244;28799;-79
2023/07/19 09:50:45;;;;;;;5.73;2.40;;;25.20;99.20;;;;;;486160;244;28765;-78
2023/07/19 09:52:46;;;;;;;3.83;2.83;;;25.00;99.60;;;;;;486108;244;28767;-81
2023/07/19 09:54:47;;;;;;;7.70;2.60;;;25.00;99.90;;;;;;486102;244;28830;-80
2023/07/19 09:56:48;;;;;;;6.83;2.30;;;24.90;99.90;;;;;;486146;244;28772;-80
2023/07/19 09:58:49;;;;;;;6.20;2.70;;;25.00;99.90;;;;;;486134;243;28780;-80
2023/07/19 10:00:51;;;;;;;4.77;2.50;;;25.00;99.90;;;;;;486181;244;29334;-80
2023/07/19 10:02:52;;;;;;;9.03;2.53;;;24.90;99.90;;;;;;486146;244;29165;-80
2023/07/19 10:04:54;;;;;;;5.60;2.40;;;25.10;99.90;;;;;;486120;244;29334;-79
2023/07/19 10:06:54;;;;;;;5.90;2.43;;;25.20;99.90;;;;;;486145;244;28863;-80
2023/07/19 10:08:56;;;;;;;5.27;2.67;;;25.40;99.90;;;;;;486164;244;28686;-79
2023/07/19 10:11:00;;;;;;;8.03;2.27;;;25.50;99.90;;;;;;486134;244;28931;-79
2023/07/19 10:13:01;;;;;;;6.67;2.77;;;25.40;99.50;;;;;;486112;244;29273;-78
2023/07/19 10:15:02;;;;;;;5.60;2.50;;;25.40;99.90;;;;;;486125;244;30030;-80
2023/07/19 10:17:04;;;;;;;6.60;2.53;;;25.50;99.90;;;;;;486131;244;28795;-79
2023/07/19 10:19:05;;;;;;;6.70;3.03;;;25.60;99.70;;;;;;486145;244;28768;-80
2023/07/19 10:21:06;;;;;;;6.17;2.67;;;25.80;99.90;;;;;;486093;244;28729;-78
2023/07/19 10:23:08;;;;;;;4.53;2.60;;;25.80;99.90;;;;;;486092;244;28765;-79
2023/07/19 10:25:09;;;;;;;9.07;2.43;;;25.90;99.90;;;;;;486074;244;28772;-79
2023/07/19 10:27:10;;;;;;;8.20;3.50;;;25.80;99.90;;;;;;486129;244;28717;-79
2023/07/19 10:29:11;;;;;;;5.07;3.00;;;25.60;99.40;;;;;;486138;244;28763;-78